sensor_id;sensor_type;location;lat;lon;timestamp;temperature;humidity
40287;DHT22;25998;46.604;13.610;2022-12-29T00:01:35;2.60;99.90
40287;DHT22;25998;46.604;13.610;2022-12-29T00:04:46;2.50;99.90
40287;DHT22;25998;46.604;13.610;2022-12-29T00:07:59;2.40;99.90
40287;DHT22;25998;46.604;13.610;2022-12-29T00:11:17;2.50;99.90
40287;DHT22;25998;46.604;13.610;2022-12-29T00:14:28;2.50;99.90
40287;DHT22;25998;46.604;13.610;2022-12-29T00:17:57;2.50;99.90
40287;DHT22;25998;46.604;13.610;2022-12-29T00:21:16;2.50;99.90
40287;DHT22;25998;46.604;13.610;2022-12-29T00:24:46;2.50;99.90
40287;DHT22;25998;46.604;13.610;2022-12-29T00:28:12;2.50;99.90
40287;DHT22;25998;46.604;13.610;2022-12-29T00:31:41;2.50;99.90
40287;DHT22;25998;46.604;13.610;2022-12-29T00:35:14;2.50;99.90
40287;DHT22;25998;46.604;13.610;2022-12-29T00:38:25;2.70;99.90
40287;DHT22;25998;46.604;13.610;2022-12-29T00:41:54;2.70;99.90
40287;DHT22;25998;46.604;13.610;2022-12-29T00:45:24;2.60;99.90
40287;DHT22;25998;46.604;13.610;2022-12-29T00:48:35;2.70;99.90
40287;DHT22;25998;46.604;13.610;2022-12-29T00:52:10;2.80;99.90
40287;DHT22;25998;46.604;13.610;2022-12-29T00:55:21;2.80;99.90
40287;DHT22;25998;46.604;13.610;2022-12-29T00:58:32;2.70;99.90
40287;DHT22;25998;46.604;13.610;2022-12-29T01:01:43;2.80;99.90
40287;DHT22;25998;46.604;13.610;2022-12-29T01:04:54;2.70;99.90
40287;DHT22;25998;46.604;13.610;2022-12-29T01:08:05;2.70;99.90
40287;DHT22;25998;46.604;13.610;2022-12-29T01:11:16;2.70;99.90
40287;DHT22;25998;46.604;13.610;2022-12-29T01:14:27;2.80;99.90
40287;DHT22;25998;46.604;13.610;2022-12-29T01:17:38;2.80;99.90
40287;DHT22;25998;46.604;13.610;2022-12-29T01:20:49;2.80;99.90
40287;DHT22;25998;46.604;13.610;2022-12-29T01:24:00;2.80;99.90
40287;DHT22;25998;46.604;13.610;2022-12-29T01:27:11;2.80;99.90
40287;DHT22;25998;46.604;13.610;2022-12-29T01:30:22;2.70;99.90
40287;DHT22;25998;46.604;13.610;2022-12-29T01:33:32;2.70;99.90
40287;DHT22;25998;46.604;13.610;2022-12-29T01:36:43;2.70;99.90
40287;DHT22;25998;46.604;13.610;2022-12-29T01:39:54;2.80;99.90
40287;DHT22;25998;46.604;13.610;2022-12-29T01:43:08;2.90;99.90
40287;DHT22;25998;46.604;13.610;2022-12-29T01:46:42;2.90;99.90
40287;DHT22;25998;46.604;13.610;2022-12-29T01:49:58;2.90;99.90
40287;DHT22;25998;46.604;13.610;2022-12-29T01:53:28;2.90;99.90
40287;DHT22;25998;46.604;13.610;2022-12-29T01:56:40;2.90;99.90
40287;DHT22;25998;46.604;13.610;2022-12-29T02:00:08;2.90;99.90
40287;DHT22;25998;46.604;13.610;2022-12-29T02:03:20;2.80;99.90
40287;DHT22;25998;46.604;13.610;2022-12-29T02:06:38;2.80;99.90
40287;DHT22;25998;46.604;13.610;2022-12-29T02:09:52;2.80;99.90
40287;DHT22;25998;46.604;13.610;2022-12-29T02:13:03;2.80;99.90
40287;DHT22;25998;46.604;13.610;2022-12-29T02:17:08;2.80;99.90
40287;DHT22;25998;46.604;13.610;2022-12-29T02:32:25;2.90;99.90
40287;DHT22;25998;46.604;13.610;2022-12-29T02:45:59;2.70;99.90
40287;DHT22;25998;46.604;13.610;2022-12-29T02:52:46;2.60;99.90
40287;DHT22;25998;46.604;13.610;2022-12-29T02:55:58;2.60;99.90
40287;DHT22;25998;46.604;13.610;2022-12-29T02:59:10;2.50;99.90
40287;DHT22;25998;46.604;13.610;2022-12-29T03:02:38;2.50;99.90
40287;DHT22;25998;46.604;13.610;2022-12-29T03:15:44;2.60;99.90
40287;DHT22;25998;46.604;13.610;2022-12-29T03:19:32;2.60;99.90
40287;DHT22;25998;46.604;13.610;2022-12-29T03:22:47;2.70;99.90
40287;DHT22;25998;46.604;13.610;2022-12-29T03:26:01;2.60;99.90
40287;DHT22;25998;46.604;13.610;2022-12-29T03:29:13;2.70;99.90
40287;DHT22;25998;46.604;13.610;2022-12-29T03:32:49;2.80;99.90
40287;DHT22;25998;46.604;13.610;2022-12-29T03:36:01;2.80;99.90
40287;DHT22;25998;46.604;13.610;2022-12-29T03:39:13;2.70;99.90
40287;DHT22;25998;46.604;13.610;2022-12-29T03:42:28;2.70;99.90
40287;DHT22;25998;46.604;13.610;2022-12-29T03:45:41;2.90;99.90
40287;DHT22;25998;46.604;13.610;2022-12-29T03:48:52;2.70;99.90
40287;DHT22;25998;46.604;13.610;2022-12-29T03:52:03;2.60;99.90
40287;DHT22;25998;46.604;13.610;2022-12-29T03:55:14;2.60;99.90
40287;DHT22;25998;46.604;13.610;2022-12-29T03:58:25;2.50;99.90
40287;DHT22;25998;46.604;13.610;2022-12-29T04:01:36;2.50;99.90
40287;DHT22;25998;46.604;13.610;2022-12-29T04:04:46;2.60;99.90
40287;DHT22;25998;46.604;13.610;2022-12-29T04:07:57;2.70;99.90
40287;DHT22;25998;46.604;13.610;2022-12-29T04:11:08;2.70;99.90
40287;DHT22;25998;46.604;13.610;2022-12-29T04:14:19;2.60;99.90
40287;DHT22;25998;46.604;13.610;2022-12-29T04:17:30;2.70;99.90
40287;DHT22;25998;46.604;13.610;2022-12-29T04:20:41;2.70;99.90
40287;DHT22;25998;46.604;13.610;2022-12-29T04:24:10;2.80;99.90
40287;DHT22;25998;46.604;13.610;2022-12-29T04:27:20;2.60;99.90
40287;DHT22;25998;46.604;13.610;2022-12-29T04:30:31;2.70;99.90
40287;DHT22;25998;46.604;13.610;2022-12-29T04:33:42;2.60;99.90
40287;DHT22;25998;46.604;13.610;2022-12-29T04:36:53;2.60;99.90
40287;DHT22;25998;46.604;13.610;2022-12-29T04:40:05;2.70;99.90
40287;DHT22;25998;46.604;13.610;2022-12-29T04:43:16;2.60;99.90
40287;DHT22;25998;46.604;13.610;2022-12-29T04:46:29;2.50;99.90
40287;DHT22;25998;46.604;13.610;2022-12-29T04:49:40;2.50;99.90
40287;DHT22;25998;46.604;13.610;2022-12-29T04:52:50;2.50;99.90
40287;DHT22;25998;46.604;13.610;2022-12-29T04:56:01;2.50;99.90
40287;DHT22;25998;46.604;13.610;2022-12-29T04:59:12;2.40;99.90
40287;DHT22;25998;46.604;13.610;2022-12-29T05:02:23;2.30;99.90
40287;DHT22;25998;46.604;13.610;2022-12-29T05:05:34;2.30;99.90
40287;DHT22;25998;46.604;13.610;2022-12-29T05:08:45;2.20;99.90
40287;DHT22;25998;46.604;13.610;2022-12-29T05:11:56;2.30;99.90
40287;DHT22;25998;46.604;13.610;2022-12-29T05:15:08;2.30;99.90
40287;DHT22;25998;46.604;13.610;2022-12-29T05:18:19;2.40;99.90
40287;DHT22;25998;46.604;13.610;2022-12-29T05:21:30;2.60;99.90
40287;DHT22;25998;46.604;13.610;2022-12-29T05:24:41;2.40;99.90
40287;DHT22;25998;46.604;13.610;2022-12-29T05:27:52;2.30;99.90
40287;DHT22;25998;46.604;13.610;2022-12-29T05:31:03;2.20;99.90
40287;DHT22;25998;46.604;13.610;2022-12-29T05:34:14;2.20;99.90
40287;DHT22;25998;46.604;13.610;2022-12-29T05:37:24;2.20;99.90
40287;DHT22;25998;46.604;13.610;2022-12-29T05:40:35;2.20;99.90
40287;DHT22;25998;46.604;13.610;2022-12-29T05:43:46;2.30;99.90
40287;DHT22;25998;46.604;13.610;2022-12-29T05:46:57;2.30;99.90
40287;DHT22;25998;46.604;13.610;2022-12-29T05:50:08;2.30;99.90
40287;DHT22;25998;46.604;13.610;2022-12-29T05:53:19;2.20;99.90
40287;DHT22;25998;46.604;13.610;2022-12-29T05:56:30;2.30;99.90
40287;DHT22;25998;46.604;13.610;2022-12-29T05:59:40;2.20;99.90
40287;DHT22;25998;46.604;13.610;2022-12-29T06:02:51;2.30;99.90
40287;DHT22;25998;46.604;13.610;2022-12-29T06:06:02;2.40;99.90
40287;DHT22;25998;46.604;13.610;2022-12-29T06:09:13;2.50;99.90
40287;DHT22;25998;46.604;13.610;2022-12-29T06:12:24;2.40;99.90
40287;DHT22;25998;46.604;13.610;2022-12-29T06:15:35;2.40;99.90
40287;DHT22;25998;46.604;13.610;2022-12-29T06:18:47;2.30;99.90
40287;DHT22;25998;46.604;13.610;2022-12-29T06:21:58;2.20;99.90
40287;DHT22;25998;46.604;13.610;2022-12-29T06:25:09;2.20;99.90
40287;DHT22;25998;46.604;13.610;2022-12-29T06:28:20;2.40;99.90
40287;DHT22;25998;46.604;13.610;2022-12-29T06:31:30;2.40;99.90
40287;DHT22;25998;46.604;13.610;2022-12-29T06:34:41;2.30;99.90
40287;DHT22;25998;46.604;13.610;2022-12-29T06:37:52;2.30;99.90
40287;DHT22;25998;46.604;13.610;2022-12-29T06:41:03;2.20;99.90
40287;DHT22;25998;46.604;13.610;2022-12-29T06:44:14;2.20;99.90
40287;DHT22;25998;46.604;13.610;2022-12-29T06:47:25;2.20;99.90
40287;DHT22;25998;46.604;13.610;2022-12-29T06:50:36;2.10;99.90
40287;DHT22;25998;46.604;13.610;2022-12-29T06:53:46;2.00;99.90
40287;DHT22;25998;46.604;13.610;2022-12-29T06:56:57;2.00;99.90
40287;DHT22;25998;46.604;13.610;2022-12-29T07:00:09;2.00;99.90
40287;DHT22;25998;46.604;13.610;2022-12-29T07:03:20;2.00;99.90
40287;DHT22;25998;46.604;13.610;2022-12-29T07:06:31;2.00;99.90
40287;DHT22;25998;46.604;13.610;2022-12-29T07:09:41;2.10;99.90
40287;DHT22;25998;46.604;13.610;2022-12-29T07:12:52;2.20;99.90
40287;DHT22;25998;46.604;13.610;2022-12-29T07:16:08;2.30;99.90
40287;DHT22;25998;46.604;13.610;2022-12-29T07:19:19;2.20;99.90
40287;DHT22;25998;46.604;13.610;2022-12-29T07:22:30;2.20;99.90
40287;DHT22;25998;46.604;13.610;2022-12-29T07:25:41;2.20;99.90
40287;DHT22;25998;46.604;13.610;2022-12-29T07:28:52;2.10;99.90
40287;DHT22;25998;46.604;13.610;2022-12-29T07:32:03;2.20;99.90
40287;DHT22;25998;46.604;13.610;2022-12-29T07:35:14;2.30;99.90
40287;DHT22;25998;46.604;13.610;2022-12-29T07:38:25;2.30;99.90
40287;DHT22;25998;46.604;13.610;2022-12-29T07:41:36;2.30;99.90
40287;DHT22;25998;46.604;13.610;2022-12-29T07:44:47;2.20;99.90
40287;DHT22;25998;46.604;13.610;2022-12-29T07:47:58;2.20;99.90
40287;DHT22;25998;46.604;13.610;2022-12-29T07:51:08;2.10;99.90
40287;DHT22;25998;46.604;13.610;2022-12-29T07:54:20;2.20;99.90
40287;DHT22;25998;46.604;13.610;2022-12-29T07:57:32;2.20;99.90
40287;DHT22;25998;46.604;13.610;2022-12-29T08:00:43;2.30;99.90
40287;DHT22;25998;46.604;13.610;2022-12-29T08:03:54;2.30;99.90
40287;DHT22;25998;46.604;13.610;2022-12-29T08:07:05;2.30;99.90
40287;DHT22;25998;46.604;13.610;2022-12-29T08:10:16;2.30;99.90
40287;DHT22;25998;46.604;13.610;2022-12-29T08:13:28;2.30;99.90
40287;DHT22;25998;46.604;13.610;2022-12-29T08:16:39;2.30;99.90
40287;DHT22;25998;46.604;13.610;2022-12-29T08:19:50;2.40;99.90
40287;DHT22;25998;46.604;13.610;2022-12-29T08:23:01;2.40;99.90
40287;DHT22;25998;46.604;13.610;2022-12-29T08:26:12;2.40;99.90
40287;DHT22;25998;46.604;13.610;2022-12-29T08:29:23;2.50;99.90
40287;DHT22;25998;46.604;13.610;2022-12-29T08:32:34;2.60;99.90
40287;DHT22;25998;46.604;13.610;2022-12-29T08:35:44;2.60;99.90
40287;DHT22;25998;46.604;13.610;2022-12-29T08:38:56;2.60;99.90
40287;DHT22;25998;46.604;13.610;2022-12-29T08:42:06;2.70;99.90
40287;DHT22;25998;46.604;13.610;2022-12-29T08:45:17;2.80;99.90
40287;DHT22;25998;46.604;13.610;2022-12-29T08:48:28;2.90;99.90
40287;DHT22;25998;46.604;13.610;2022-12-29T08:51:39;3.00;99.90
40287;DHT22;25998;46.604;13.610;2022-12-29T08:54:50;3.30;99.90
40287;DHT22;25998;46.604;13.610;2022-12-29T08:58:01;3.50;99.90
40287;DHT22;25998;46.604;13.610;2022-12-29T09:01:11;3.80;99.90
40287;DHT22;25998;46.604;13.610;2022-12-29T09:04:22;4.20;99.90
40287;DHT22;25998;46.604;13.610;2022-12-29T09:07:34;4.80;99.90
40287;DHT22;25998;46.604;13.610;2022-12-29T09:10:45;5.30;99.90
40287;DHT22;25998;46.604;13.610;2022-12-29T09:13:56;6.00;99.90
40287;DHT22;25998;46.604;13.610;2022-12-29T09:17:07;6.70;99.90
40287;DHT22;25998;46.604;13.610;2022-12-29T09:20:36;7.30;99.90
40287;DHT22;25998;46.604;13.610;2022-12-29T09:23:47;7.80;99.90
40287;DHT22;25998;46.604;13.610;2022-12-29T09:26:58;7.80;99.90
40287;DHT22;25998;46.604;13.610;2022-12-29T09:30:11;8.00;99.90
40287;DHT22;25998;46.604;13.610;2022-12-29T09:33:22;7.60;99.90
40287;DHT22;25998;46.604;13.610;2022-12-29T09:36:33;7.90;99.90
40287;DHT22;25998;46.604;13.610;2022-12-29T09:39:44;8.40;99.90
40287;DHT22;25998;46.604;13.610;2022-12-29T09:46:47;9.10;99.30
40287;DHT22;25998;46.604;13.610;2022-12-29T09:50:09;9.40;99.00
40287;DHT22;25998;46.604;13.610;2022-12-29T09:53:44;9.50;97.60
40287;DHT22;25998;46.604;13.610;2022-12-29T09:56:58;9.90;97.50
40287;DHT22;25998;46.604;13.610;2022-12-29T10:00:15;10.00;96.40
40287;DHT22;25998;46.604;13.610;2022-12-29T10:03:54;10.00;96.10
40287;DHT22;25998;46.604;13.610;2022-12-29T10:10:53;9.40;94.50
40287;DHT22;25998;46.604;13.610;2022-12-29T10:17:43;9.80;94.70
40287;DHT22;25998;46.604;13.610;2022-12-29T10:24:39;10.00;93.70
40287;DHT22;25998;46.604;13.610;2022-12-29T10:27:51;9.90;93.90
40287;DHT22;25998;46.604;13.610;2022-12-29T10:31:09;9.90;93.50
40287;DHT22;25998;46.604;13.610;2022-12-29T10:34:37;9.60;94.00
40287;DHT22;25998;46.604;13.610;2022-12-29T10:41:43;10.20;92.90
40287;DHT22;25998;46.604;13.610;2022-12-29T10:44:56;10.10;93.00
40287;DHT22;25998;46.604;13.610;2022-12-29T10:48:23;10.00;93.30
40287;DHT22;25998;46.604;13.610;2022-12-29T10:51:39;9.50;94.00
40287;DHT22;25998;46.604;13.610;2022-12-29T10:55:25;9.60;93.80
40287;DHT22;25998;46.604;13.610;2022-12-29T10:58:39;8.70;95.20
40287;DHT22;25998;46.604;13.610;2022-12-29T11:01:59;8.20;95.20
40287;DHT22;25998;46.604;13.610;2022-12-29T11:05:33;8.10;96.40
40287;DHT22;25998;46.604;13.610;2022-12-29T11:08:52;8.40;96.40
40287;DHT22;25998;46.604;13.610;2022-12-29T11:15:49;9.50;94.10
40287;DHT22;25998;46.604;13.610;2022-12-29T11:19:01;9.70;95.60
40287;DHT22;25998;46.604;13.610;2022-12-29T11:22:19;9.90;93.40
40287;DHT22;25998;46.604;13.610;2022-12-29T11:25:31;9.90;93.70
40287;DHT22;25998;46.604;13.610;2022-12-29T11:28:45;9.80;94.30
40287;DHT22;25998;46.604;13.610;2022-12-29T11:31:57;9.70;94.40
40287;DHT22;25998;46.604;13.610;2022-12-29T11:35:30;9.60;94.90
40287;DHT22;25998;46.604;13.610;2022-12-29T11:38:52;8.60;95.10
40287;DHT22;25998;46.604;13.610;2022-12-29T11:42:04;8.40;95.70
40287;DHT22;25998;46.604;13.610;2022-12-29T11:45:33;8.50;95.70
40287;DHT22;25998;46.604;13.610;2022-12-29T11:48:44;8.50;95.90
40287;DHT22;25998;46.604;13.610;2022-12-29T11:51:56;8.60;95.90
40287;DHT22;25998;46.604;13.610;2022-12-29T11:55:18;8.50;96.10
40287;DHT22;25998;46.604;13.610;2022-12-29T11:58:31;8.40;96.90
40287;DHT22;25998;46.604;13.610;2022-12-29T12:01:43;8.40;96.90
40287;DHT22;25998;46.604;13.610;2022-12-29T12:08:54;8.20;97.00
40287;DHT22;25998;46.604;13.610;2022-12-29T12:12:09;7.80;99.00
40287;DHT22;25998;46.604;13.610;2022-12-29T12:15:31;7.90;99.10
40287;DHT22;25998;46.604;13.610;2022-12-29T12:18:57;8.00;97.00
40287;DHT22;25998;46.604;13.610;2022-12-29T12:22:26;8.10;97.10
40287;DHT22;25998;46.604;13.610;2022-12-29T12:25:43;8.40;97.50
40287;DHT22;25998;46.604;13.610;2022-12-29T12:29:10;8.50;96.50
40287;DHT22;25998;46.604;13.610;2022-12-29T12:32:40;8.50;95.90
40287;DHT22;25998;46.604;13.610;2022-12-29T12:39:27;8.90;95.90
40287;DHT22;25998;46.604;13.610;2022-12-29T12:49:40;8.70;96.00
40287;DHT22;25998;46.604;13.610;2022-12-29T13:00:07;8.50;96.20
40287;DHT22;25998;46.604;13.610;2022-12-29T13:20:56;9.10;96.40
40287;DHT22;25998;46.604;13.610;2022-12-29T13:24:15;8.90;97.90
40287;DHT22;25998;46.604;13.610;2022-12-29T13:27:41;9.10;97.00
40287;DHT22;25998;46.604;13.610;2022-12-29T13:31:00;9.00;96.00
40287;DHT22;25998;46.604;13.610;2022-12-29T13:34:17;8.80;95.90
40287;DHT22;25998;46.604;13.610;2022-12-29T13:37:33;8.80;96.10
40287;DHT22;25998;46.604;13.610;2022-12-29T13:40:50;9.00;96.40
40287;DHT22;25998;46.604;13.610;2022-12-29T13:44:03;9.10;96.10
40287;DHT22;25998;46.604;13.610;2022-12-29T13:47:34;9.40;95.40
40287;DHT22;25998;46.604;13.610;2022-12-29T13:50:54;9.30;95.30
40287;DHT22;25998;46.604;13.610;2022-12-29T14:04:35;8.20;98.70
40287;DHT22;25998;46.604;13.610;2022-12-29T14:07:48;8.10;99.20
40287;DHT22;25998;46.604;13.610;2022-12-29T14:11:10;8.00;99.10
40287;DHT22;25998;46.604;13.610;2022-12-29T14:14:23;8.10;99.20
40287;DHT22;25998;46.604;13.610;2022-12-29T14:17:36;8.00;99.20
40287;DHT22;25998;46.604;13.610;2022-12-29T14:20:59;7.80;99.70
40287;DHT22;25998;46.604;13.610;2022-12-29T14:27:43;7.50;99.80
40287;DHT22;25998;46.604;13.610;2022-12-29T14:30:59;7.40;99.90
40287;DHT22;25998;46.604;13.610;2022-12-29T14:37:35;7.10;99.90
40287;DHT22;25998;46.604;13.610;2022-12-29T14:40:50;7.00;99.90
40287;DHT22;25998;46.604;13.610;2022-12-29T14:44:15;7.00;99.90
40287;DHT22;25998;46.604;13.610;2022-12-29T14:50:42;6.70;99.90
40287;DHT22;25998;46.604;13.610;2022-12-29T14:53:54;6.80;99.90
40287;DHT22;25998;46.604;13.610;2022-12-29T14:57:09;6.60;99.90
40287;DHT22;25998;46.604;13.610;2022-12-29T15:00:26;6.40;99.90
40287;DHT22;25998;46.604;13.610;2022-12-29T15:04:17;6.20;99.90
40287;DHT22;25998;46.604;13.610;2022-12-29T15:07:29;6.00;99.90
40287;DHT22;25998;46.604;13.610;2022-12-29T15:10:59;5.80;99.90
40287;DHT22;25998;46.604;13.610;2022-12-29T15:17:42;5.60;99.90
40287;DHT22;25998;46.604;13.610;2022-12-29T15:20:59;5.50;99.90
40287;DHT22;25998;46.604;13.610;2022-12-29T15:24:11;5.50;99.90
40287;DHT22;25998;46.604;13.610;2022-12-29T15:27:25;5.50;99.90
40287;DHT22;25998;46.604;13.610;2022-12-29T15:30:53;5.60;99.90
40287;DHT22;25998;46.604;13.610;2022-12-29T15:34:12;5.50;99.90
40287;DHT22;25998;46.604;13.610;2022-12-29T15:37:25;5.50;99.90
40287;DHT22;25998;46.604;13.610;2022-12-29T15:40:37;5.50;99.90
40287;DHT22;25998;46.604;13.610;2022-12-29T15:44:12;5.30;99.90
40287;DHT22;25998;46.604;13.610;2022-12-29T15:47:29;5.30;99.90
40287;DHT22;25998;46.604;13.610;2022-12-29T15:50:41;5.20;99.90
40287;DHT22;25998;46.604;13.610;2022-12-29T15:53:54;5.20;99.90
40287;DHT22;25998;46.604;13.610;2022-12-29T15:57:42;5.00;99.90
40287;DHT22;25998;46.604;13.610;2022-12-29T16:00:51;4.90;99.90
40287;DHT22;25998;46.604;13.610;2022-12-29T16:04:06;4.80;99.90
40287;DHT22;25998;46.604;13.610;2022-12-29T16:07:27;4.70;99.90
40287;DHT22;25998;46.604;13.610;2022-12-29T16:10:40;4.70;99.90
40287;DHT22;25998;46.604;13.610;2022-12-29T16:13:53;4.70;99.90
40287;DHT22;25998;46.604;13.610;2022-12-29T16:17:05;4.80;99.90
40287;DHT22;25998;46.604;13.610;2022-12-29T16:20:25;4.90;99.90
40287;DHT22;25998;46.604;13.610;2022-12-29T16:23:39;5.10;99.90
40287;DHT22;25998;46.604;13.610;2022-12-29T16:27:02;5.00;99.90
40287;DHT22;25998;46.604;13.610;2022-12-29T16:30:25;4.90;99.90
40287;DHT22;25998;46.604;13.610;2022-12-29T16:33:50;5.00;99.90
40287;DHT22;25998;46.604;13.610;2022-12-29T16:37:03;4.90;99.90
40287;DHT22;25998;46.604;13.610;2022-12-29T16:43:33;4.60;99.90
40287;DHT22;25998;46.604;13.610;2022-12-29T16:50:22;4.50;99.90
40287;DHT22;25998;46.604;13.610;2022-12-29T16:53:37;4.50;99.90
40287;DHT22;25998;46.604;13.610;2022-12-29T16:56:48;4.40;99.90
40287;DHT22;25998;46.604;13.610;2022-12-29T17:00:03;4.50;99.90
40287;DHT22;25998;46.604;13.610;2022-12-29T17:03:15;4.60;99.90
40287;DHT22;25998;46.604;13.610;2022-12-29T17:06:26;4.60;99.90
40287;DHT22;25998;46.604;13.610;2022-12-29T17:09:37;4.60;99.90
40287;DHT22;25998;46.604;13.610;2022-12-29T17:12:48;4.70;99.90
40287;DHT22;25998;46.604;13.610;2022-12-29T17:15:59;5.00;99.90
40287;DHT22;25998;46.604;13.610;2022-12-29T17:19:19;5.00;99.90
40287;DHT22;25998;46.604;13.610;2022-12-29T17:22:31;4.80;99.90
40287;DHT22;25998;46.604;13.610;2022-12-29T17:25:42;4.80;99.90
40287;DHT22;25998;46.604;13.610;2022-12-29T17:28:53;4.80;99.90
40287;DHT22;25998;46.604;13.610;2022-12-29T17:32:06;4.50;99.90
40287;DHT22;25998;46.604;13.610;2022-12-29T17:35:21;4.40;99.90
40287;DHT22;25998;46.604;13.610;2022-12-29T17:38:34;4.40;99.90
40287;DHT22;25998;46.604;13.610;2022-12-29T17:41:45;4.30;99.90
40287;DHT22;25998;46.604;13.610;2022-12-29T17:44:57;4.30;99.90
40287;DHT22;25998;46.604;13.610;2022-12-29T17:48:13;4.30;99.90
40287;DHT22;25998;46.604;13.610;2022-12-29T17:51:24;4.50;99.90
40287;DHT22;25998;46.604;13.610;2022-12-29T17:54:46;4.60;99.90
40287;DHT22;25998;46.604;13.610;2022-12-29T17:57:59;4.40;99.90
40287;DHT22;25998;46.604;13.610;2022-12-29T18:01:10;4.30;99.90
40287;DHT22;25998;46.604;13.610;2022-12-29T18:04:21;4.20;99.90
40287;DHT22;25998;46.604;13.610;2022-12-29T18:07:32;4.10;99.90
40287;DHT22;25998;46.604;13.610;2022-12-29T18:10:43;4.10;99.90
40287;DHT22;25998;46.604;13.610;2022-12-29T18:13:54;4.10;99.90
40287;DHT22;25998;46.604;13.610;2022-12-29T18:17:11;4.00;99.90
40287;DHT22;25998;46.604;13.610;2022-12-29T18:20:22;4.00;99.90
40287;DHT22;25998;46.604;13.610;2022-12-29T18:23:33;4.00;99.90
40287;DHT22;25998;46.604;13.610;2022-12-29T18:26:47;4.00;99.90
40287;DHT22;25998;46.604;13.610;2022-12-29T18:29:57;4.20;99.90
40287;DHT22;25998;46.604;13.610;2022-12-29T18:33:19;4.20;99.90
40287;DHT22;25998;46.604;13.610;2022-12-29T18:36:31;4.10;99.90
40287;DHT22;25998;46.604;13.610;2022-12-29T18:39:41;3.90;99.90
40287;DHT22;25998;46.604;13.610;2022-12-29T18:42:52;3.90;99.90
40287;DHT22;25998;46.604;13.610;2022-12-29T18:46:03;3.90;99.90
40287;DHT22;25998;46.604;13.610;2022-12-29T18:49:14;3.90;99.90
40287;DHT22;25998;46.604;13.610;2022-12-29T18:52:25;4.00;99.90
40287;DHT22;25998;46.604;13.610;2022-12-29T18:55:36;3.90;99.90
40287;DHT22;25998;46.604;13.610;2022-12-29T18:58:47;3.90;99.90
40287;DHT22;25998;46.604;13.610;2022-12-29T19:01:58;3.90;99.90
40287;DHT22;25998;46.604;13.610;2022-12-29T19:05:19;4.00;99.90
40287;DHT22;25998;46.604;13.610;2022-12-29T19:08:30;4.10;99.90
40287;DHT22;25998;46.604;13.610;2022-12-29T19:11:41;4.30;99.90
40287;DHT22;25998;46.604;13.610;2022-12-29T19:14:52;4.30;99.90
40287;DHT22;25998;46.604;13.610;2022-12-29T19:18:04;4.20;99.90
40287;DHT22;25998;46.604;13.610;2022-12-29T19:21:15;4.00;99.90
40287;DHT22;25998;46.604;13.610;2022-12-29T19:24:29;3.90;99.90
40287;DHT22;25998;46.604;13.610;2022-12-29T19:27:40;3.90;99.90
40287;DHT22;25998;46.604;13.610;2022-12-29T19:30:52;4.00;99.90
40287;DHT22;25998;46.604;13.610;2022-12-29T19:34:03;4.10;99.90
40287;DHT22;25998;46.604;13.610;2022-12-29T19:37:14;4.20;99.90
40287;DHT22;25998;46.604;13.610;2022-12-29T19:40:26;4.20;99.90
40287;DHT22;25998;46.604;13.610;2022-12-29T19:43:37;4.10;99.90
40287;DHT22;25998;46.604;13.610;2022-12-29T19:46:47;4.10;99.90
40287;DHT22;25998;46.604;13.610;2022-12-29T19:49:58;4.40;99.90
40287;DHT22;25998;46.604;13.610;2022-12-29T19:53:10;4.30;99.90
40287;DHT22;25998;46.604;13.610;2022-12-29T19:56:21;4.20;99.90
40287;DHT22;25998;46.604;13.610;2022-12-29T19:59:32;4.20;99.90
40287;DHT22;25998;46.604;13.610;2022-12-29T20:02:42;4.20;99.90
40287;DHT22;25998;46.604;13.610;2022-12-29T20:05:53;4.10;99.90
40287;DHT22;25998;46.604;13.610;2022-12-29T20:09:04;4.10;99.90
40287;DHT22;25998;46.604;13.610;2022-12-29T20:12:16;4.00;99.90
40287;DHT22;25998;46.604;13.610;2022-12-29T20:15:27;4.00;99.90
40287;DHT22;25998;46.604;13.610;2022-12-29T20:18:38;4.10;99.90
40287;DHT22;25998;46.604;13.610;2022-12-29T20:21:49;4.00;99.90
40287;DHT22;25998;46.604;13.610;2022-12-29T20:24:59;3.90;99.90
40287;DHT22;25998;46.604;13.610;2022-12-29T20:28:10;3.80;99.90
40287;DHT22;25998;46.604;13.610;2022-12-29T20:31:27;3.90;99.90
40287;DHT22;25998;46.604;13.610;2022-12-29T20:34:39;3.70;99.90
40287;DHT22;25998;46.604;13.610;2022-12-29T20:37:51;3.70;99.90
40287;DHT22;25998;46.604;13.610;2022-12-29T20:41:02;3.90;99.90
40287;DHT22;25998;46.604;13.610;2022-12-29T20:44:13;4.10;99.90
40287;DHT22;25998;46.604;13.610;2022-12-29T20:47:24;3.90;99.90
40287;DHT22;25998;46.604;13.610;2022-12-29T20:50:35;3.80;99.90
40287;DHT22;25998;46.604;13.610;2022-12-29T20:53:46;3.80;99.90
40287;DHT22;25998;46.604;13.610;2022-12-29T20:56:57;3.80;99.90
40287;DHT22;25998;46.604;13.610;2022-12-29T21:00:08;3.90;99.90
40287;DHT22;25998;46.604;13.610;2022-12-29T21:03:21;3.90;99.90
40287;DHT22;25998;46.604;13.610;2022-12-29T21:06:34;3.90;99.90
40287;DHT22;25998;46.604;13.610;2022-12-29T21:09:45;4.00;99.90
40287;DHT22;25998;46.604;13.610;2022-12-29T21:12:55;4.00;99.90
40287;DHT22;25998;46.604;13.610;2022-12-29T21:16:08;3.90;99.90
40287;DHT22;25998;46.604;13.610;2022-12-29T21:19:19;3.80;99.90
40287;DHT22;25998;46.604;13.610;2022-12-29T21:22:30;3.70;99.90
40287;DHT22;25998;46.604;13.610;2022-12-29T21:25:42;3.70;99.90
40287;DHT22;25998;46.604;13.610;2022-12-29T21:28:53;3.80;99.90
40287;DHT22;25998;46.604;13.610;2022-12-29T21:32:06;3.90;99.90
40287;DHT22;25998;46.604;13.610;2022-12-29T21:35:16;3.90;99.90
40287;DHT22;25998;46.604;13.610;2022-12-29T21:38:27;3.90;99.90
40287;DHT22;25998;46.604;13.610;2022-12-29T21:41:41;3.90;99.90
40287;DHT22;25998;46.604;13.610;2022-12-29T21:44:52;4.10;99.90
40287;DHT22;25998;46.604;13.610;2022-12-29T21:48:21;4.20;99.90
40287;DHT22;25998;46.604;13.610;2022-12-29T21:51:35;4.20;99.90
40287;DHT22;25998;46.604;13.610;2022-12-29T21:55:03;4.00;99.90
40287;DHT22;25998;46.604;13.610;2022-12-29T21:58:14;4.00;99.90
40287;DHT22;25998;46.604;13.610;2022-12-29T22:01:43;3.90;99.90
40287;DHT22;25998;46.604;13.610;2022-12-29T22:05:14;3.90;99.90
40287;DHT22;25998;46.604;13.610;2022-12-29T22:08:43;4.00;99.90
40287;DHT22;25998;46.604;13.610;2022-12-29T22:12:12;3.90;99.90
40287;DHT22;25998;46.604;13.610;2022-12-29T22:15:42;4.00;99.90
40287;DHT22;25998;46.604;13.610;2022-12-29T22:18:53;4.10;99.90
40287;DHT22;25998;46.604;13.610;2022-12-29T22:22:04;4.00;99.90
40287;DHT22;25998;46.604;13.610;2022-12-29T22:25:15;4.10;99.90
40287;DHT22;25998;46.604;13.610;2022-12-29T22:28:26;4.00;99.90
40287;DHT22;25998;46.604;13.610;2022-12-29T22:31:37;3.90;99.90
40287;DHT22;25998;46.604;13.610;2022-12-29T22:34:48;3.90;99.90
40287;DHT22;25998;46.604;13.610;2022-12-29T22:37:59;3.90;99.90